sensor_id;sensor_type;location;lat;lon;timestamp;pressure;altitude;pressure_sealevel;temperature;humidity
47883;BME280;37739;50.350;7.578;2023-02-15T00:01:55;101177.47;;;1.99;87.21
47883;BME280;37739;50.350;7.578;2023-02-15T00:04:25;101183.69;;;2.03;87.16
47883;BME280;37739;50.350;7.578;2023-02-15T00:07:11;101181.03;;;2.01;87.28
47883;BME280;37739;50.350;7.578;2023-02-15T00:09:36;101173.44;;;2.01;87.62
47883;BME280;37739;50.350;7.578;2023-02-15T00:12:01;101175.22;;;2.02;87.31
47883;BME280;37739;50.350;7.578;2023-02-15T00:14:29;101175.22;;;2.02;87.78
47883;BME280;37739;50.350;7.578;2023-02-15T00:16:54;101179.53;;;2.03;87.44
47883;BME280;37739;50.350;7.578;2023-02-15T00:19:23;101165.22;;;2.04;86.93
47883;BME280;37739;50.350;7.578;2023-02-15T00:21:50;101166.16;;;1.95;86.95
47883;BME280;37739;50.350;7.578;2023-02-15T00:24:17;101162.28;;;1.90;87.42
47883;BME280;37739;50.350;7.578;2023-02-15T00:26:43;101154.84;;;1.92;86.43
47883;BME280;37739;50.350;7.578;2023-02-15T00:29:10;101159.75;;;1.90;86.61
47883;BME280;37739;50.350;7.578;2023-02-15T00:31:38;101157.13;;;1.89;87.30
47883;BME280;37739;50.350;7.578;2023-02-15T00:34:09;101156.09;;;1.87;86.39
47883;BME280;37739;50.350;7.578;2023-02-15T00:36:35;101162.91;;;1.88;86.77
47883;BME280;37739;50.350;7.578;2023-02-15T00:39:01;101162.19;;;1.89;86.72
47883;BME280;37739;50.350;7.578;2023-02-15T00:41:28;101163.69;;;1.87;86.10
47883;BME280;37739;50.350;7.578;2023-02-15T00:43:59;101164.56;;;1.87;86.42
47883;BME280;37739;50.350;7.578;2023-02-15T00:46:27;101166.78;;;1.93;86.58
47883;BME280;37739;50.350;7.578;2023-02-15T00:48:52;101166.31;;;1.97;86.22
47883;BME280;37739;50.350;7.578;2023-02-15T00:51:18;101159.31;;;1.94;85.70
47883;BME280;37739;50.350;7.578;2023-02-15T00:53:48;101163.78;;;1.97;85.99
47883;BME280;37739;50.350;7.578;2023-02-15T00:56:14;101156.19;;;1.97;85.58
47883;BME280;37739;50.350;7.578;2023-02-15T00:58:39;101160.06;;;1.93;85.93
47883;BME280;37739;50.350;7.578;2023-02-15T01:01:10;101153.97;;;1.91;86.02
47883;BME280;37739;50.350;7.578;2023-02-15T01:03:38;101148.03;;;1.91;85.49
47883;BME280;37739;50.350;7.578;2023-02-15T01:06:04;101150.56;;;1.91;86.02
47883;BME280;37739;50.350;7.578;2023-02-15T01:08:30;101153.34;;;1.94;85.96
47883;BME280;37739;50.350;7.578;2023-02-15T01:10:56;101153.66;;;1.97;85.26
47883;BME280;37739;50.350;7.578;2023-02-15T01:13:22;101143.84;;;1.91;85.81
47883;BME280;37739;50.350;7.578;2023-02-15T01:15:53;101145.03;;;1.86;86.02
47883;BME280;37739;50.350;7.578;2023-02-15T01:18:19;101149.22;;;1.86;86.14
47883;BME280;37739;50.350;7.578;2023-02-15T01:20:45;101150.25;;;1.88;86.44
47883;BME280;37739;50.350;7.578;2023-02-15T01:23:12;101146.69;;;1.86;86.21
47883;BME280;37739;50.350;7.578;2023-02-15T01:25:40;101144.16;;;1.86;86.96
47883;BME280;37739;50.350;7.578;2023-02-15T01:28:11;101137.91;;;1.91;85.93
47883;BME280;37739;50.350;7.578;2023-02-15T01:30:38;101134.34;;;1.89;86.22
47883;BME280;37739;50.350;7.578;2023-02-15T01:33:04;101143.28;;;1.85;86.31
47883;BME280;37739;50.350;7.578;2023-02-15T01:35:32;101133.25;;;1.95;86.00
47883;BME280;37739;50.350;7.578;2023-02-15T01:37:59;101138.94;;;1.93;85.66
47883;BME280;37739;50.350;7.578;2023-02-15T01:40:25;101143.06;;;1.92;85.90
47883;BME280;37739;50.350;7.578;2023-02-15T01:42:53;101130.78;;;1.87;85.34
47883;BME280;37739;50.350;7.578;2023-02-15T01:45:34;101135.38;;;1.91;85.74
47883;BME280;37739;50.350;7.578;2023-02-15T01:50:34;101126.44;;;1.94;85.41
47883;BME280;37739;50.350;7.578;2023-02-15T01:53:52;101132.06;;;1.92;85.64
47883;BME280;37739;50.350;7.578;2023-02-15T01:56:28;101122.97;;;1.94;85.94
47883;BME280;37739;50.350;7.578;2023-02-15T01:58:56;101118.47;;;2.00;85.39
47883;BME280;37739;50.350;7.578;2023-02-15T02:01:27;101111.25;;;1.94;85.25
47883;BME280;37739;50.350;7.578;2023-02-15T02:06:48;101121.94;;;1.92;85.35
47883;BME280;37739;50.350;7.578;2023-02-15T02:09:14;101113.66;;;1.84;86.03
47883;BME280;37739;50.350;7.578;2023-02-15T02:11:44;101115.16;;;1.82;85.72
47883;BME280;37739;50.350;7.578;2023-02-15T02:14:13;101117.06;;;1.85;86.43
47883;BME280;37739;50.350;7.578;2023-02-15T02:34:05;101098.47;;;1.84;85.82
47883;BME280;37739;50.350;7.578;2023-02-15T02:44:31;101082.31;;;1.73;86.26
47883;BME280;37739;50.350;7.578;2023-02-15T02:49:40;101070.06;;;1.78;86.14
47883;BME280;37739;50.350;7.578;2023-02-15T02:55:00;101066.50;;;1.76;85.70
47883;BME280;37739;50.350;7.578;2023-02-15T02:57:27;101068.56;;;1.80;85.19
47883;BME280;37739;50.350;7.578;2023-02-15T02:59:54;101065.00;;;1.78;85.62
47883;BME280;37739;50.350;7.578;2023-02-15T03:02:27;101058.03;;;1.75;85.23
47883;BME280;37739;50.350;7.578;2023-02-15T03:05:03;101056.88;;;1.72;85.16
47883;BME280;37739;50.350;7.578;2023-02-15T03:07:33;101058.22;;;1.68;85.12
47883;BME280;37739;50.350;7.578;2023-02-15T03:10:00;101061.94;;;1.72;85.77
47883;BME280;37739;50.350;7.578;2023-02-15T03:12:35;101059.56;;;1.65;85.89
47883;BME280;37739;50.350;7.578;2023-02-15T03:15:05;101055.53;;;1.67;85.93
47883;BME280;37739;50.350;7.578;2023-02-15T03:17:39;101061.16;;;1.73;85.68
47883;BME280;37739;50.350;7.578;2023-02-15T03:20:12;101059.81;;;1.76;85.00
47883;BME280;37739;50.350;7.578;2023-02-15T03:22:45;101060.97;;;1.80;85.43
47883;BME280;37739;50.350;7.578;2023-02-15T03:25:38;101055.38;;;1.74;85.26
47883;BME280;37739;50.350;7.578;2023-02-15T03:28:07;101053.25;;;1.79;85.63
47883;BME280;37739;50.350;7.578;2023-02-15T03:30:35;101058.78;;;1.74;85.29
47883;BME280;37739;50.350;7.578;2023-02-15T03:33:02;101057.19;;;1.66;84.55
47883;BME280;37739;50.350;7.578;2023-02-15T03:35:45;101051.19;;;1.74;85.22
47883;BME280;37739;50.350;7.578;2023-02-15T03:38:17;101049.22;;;1.81;84.92
47883;BME280;37739;50.350;7.578;2023-02-15T03:40:46;101045.31;;;1.84;84.93
47883;BME280;37739;50.350;7.578;2023-02-15T03:43:38;101039.84;;;1.80;84.25
47883;BME280;37739;50.350;7.578;2023-02-15T03:48:49;101044.38;;;1.73;84.35
47883;BME280;37739;50.350;7.578;2023-02-15T03:51:20;101047.06;;;1.66;84.12
47883;BME280;37739;50.350;7.578;2023-02-15T03:54:02;101042.34;;;1.61;85.22
47883;BME280;37739;50.350;7.578;2023-02-15T03:56:27;101042.47;;;1.62;85.37
47883;BME280;37739;50.350;7.578;2023-02-15T03:58:53;101027.09;;;1.69;85.14
47883;BME280;37739;50.350;7.578;2023-02-15T04:01:43;101032.28;;;1.71;84.76
47883;BME280;37739;50.350;7.578;2023-02-15T04:04:45;101029.06;;;1.63;84.57
47883;BME280;37739;50.350;7.578;2023-02-15T04:07:10;101032.28;;;1.71;85.41
47883;BME280;37739;50.350;7.578;2023-02-15T04:09:36;101035.22;;;1.56;85.37
47883;BME280;37739;50.350;7.578;2023-02-15T04:12:23;101038.16;;;1.61;84.97
47883;BME280;37739;50.350;7.578;2023-02-15T04:14:49;101046.91;;;1.73;85.26
47883;BME280;37739;50.350;7.578;2023-02-15T04:17:36;101045.88;;;1.71;85.11
47883;BME280;37739;50.350;7.578;2023-02-15T04:20:03;101041.38;;;1.69;84.45
47883;BME280;37739;50.350;7.578;2023-02-15T04:22:47;101033.63;;;1.76;84.77
47883;BME280;37739;50.350;7.578;2023-02-15T04:25:31;101043.88;;;1.77;84.45
47883;BME280;37739;50.350;7.578;2023-02-15T04:27:57;101037.31;;;1.80;83.47
47883;BME280;37739;50.350;7.578;2023-02-15T04:30:25;101029.75;;;1.80;83.97
47883;BME280;37739;50.350;7.578;2023-02-15T04:32:56;101024.81;;;1.81;84.25
47883;BME280;37739;50.350;7.578;2023-02-15T04:35:23;101030.94;;;1.74;84.06
47883;BME280;37739;50.350;7.578;2023-02-15T04:37:49;101024.72;;;1.71;83.97
47883;BME280;37739;50.350;7.578;2023-02-15T04:40:16;101027.44;;;1.64;83.41
47883;BME280;37739;50.350;7.578;2023-02-15T04:42:47;101036.06;;;1.66;84.13
47883;BME280;37739;50.350;7.578;2023-02-15T04:45:15;101031.88;;;1.66;83.34
47883;BME280;37739;50.350;7.578;2023-02-15T04:47:41;101028.19;;;1.63;84.19
47883;BME280;37739;50.350;7.578;2023-02-15T04:50:09;101030.25;;;1.67;83.93
47883;BME280;37739;50.350;7.578;2023-02-15T04:52:34;101025.75;;;1.73;83.64
47883;BME280;37739;50.350;7.578;2023-02-15T04:55:00;101029.22;;;1.65;83.65
47883;BME280;37739;50.350;7.578;2023-02-15T04:57:27;101030.53;;;1.70;83.97
47883;BME280;37739;50.350;7.578;2023-02-15T04:59:53;101023.97;;;1.72;83.63
47883;BME280;37739;50.350;7.578;2023-02-15T05:02:18;101023.81;;;1.70;84.28
47883;BME280;37739;50.350;7.578;2023-02-15T05:04:44;101025.75;;;1.73;84.21
47883;BME280;37739;50.350;7.578;2023-02-15T05:07:09;101032.44;;;1.72;83.83
47883;BME280;37739;50.350;7.578;2023-02-15T05:09:34;101029.28;;;1.75;83.73
47883;BME280;37739;50.350;7.578;2023-02-15T05:12:02;101023.81;;;1.70;83.87
47883;BME280;37739;50.350;7.578;2023-02-15T05:14:28;101026.34;;;1.70;83.92
47883;BME280;37739;50.350;7.578;2023-02-15T05:16:53;101023.81;;;1.70;84.10
47883;BME280;37739;50.350;7.578;2023-02-15T05:19:21;101024.63;;;1.61;83.99
47883;BME280;37739;50.350;7.578;2023-02-15T05:21:49;101033.88;;;1.60;84.46
47883;BME280;37739;50.350;7.578;2023-02-15T05:24:17;101038.84;;;1.69;84.29
47883;BME280;37739;50.350;7.578;2023-02-15T05:27:03;101042.97;;;1.77;83.63
47883;BME280;37739;50.350;7.578;2023-02-15T05:29:47;101029.88;;;1.81;83.32
47883;BME280;37739;50.350;7.578;2023-02-15T05:32:13;101030.91;;;1.83;83.01
47883;BME280;37739;50.350;7.578;2023-02-15T05:34:39;101026.88;;;1.85;82.85
47883;BME280;37739;50.350;7.578;2023-02-15T05:37:04;101028.38;;;1.83;83.57
47883;BME280;37739;50.350;7.578;2023-02-15T05:39:29;101021.06;;;1.86;83.12
47883;BME280;37739;50.350;7.578;2023-02-15T05:41:58;101018.38;;;1.85;83.06
47883;BME280;37739;50.350;7.578;2023-02-15T05:44:33;101030.28;;;1.86;83.28
47883;BME280;37739;50.350;7.578;2023-02-15T05:47:05;101026.75;;;1.75;83.90
47883;BME280;37739;50.350;7.578;2023-02-15T05:49:32;101029.19;;;1.73;83.67
47883;BME280;37739;50.350;7.578;2023-02-15T05:52:00;101025.09;;;1.84;83.06
47883;BME280;37739;50.350;7.578;2023-02-15T05:54:28;101013.06;;;1.82;83.23
47883;BME280;37739;50.350;7.578;2023-02-15T05:56:53;101019.28;;;1.85;83.37
47883;BME280;37739;50.350;7.578;2023-02-15T05:59:19;101021.19;;;1.88;82.59
47883;BME280;37739;50.350;7.578;2023-02-15T06:01:46;101022.84;;;1.87;83.49
47883;BME280;37739;50.350;7.578;2023-02-15T06:04:14;101018.81;;;1.89;82.83
47883;BME280;37739;50.350;7.578;2023-02-15T06:06:44;101017.31;;;1.91;82.59
47883;BME280;37739;50.350;7.578;2023-02-15T06:09:12;101014.28;;;1.95;83.14
47883;BME280;37739;50.350;7.578;2023-02-15T06:11:38;101026.94;;;1.95;82.64
47883;BME280;37739;50.350;7.578;2023-02-15T06:14:05;101024.03;;;1.91;83.20
47883;BME280;37739;50.350;7.578;2023-02-15T06:16:31;101022.38;;;1.91;83.29
47883;BME280;37739;50.350;7.578;2023-02-15T06:18:58;101030.00;;;1.83;83.42
47883;BME280;37739;50.350;7.578;2023-02-15T06:21:24;101020.78;;;1.83;83.83
47883;BME280;37739;50.350;7.578;2023-02-15T06:23:50;101025.38;;;1.87;83.27
47883;BME280;37739;50.350;7.578;2023-02-15T06:26:15;101028.63;;;1.86;83.62
47883;BME280;37739;50.350;7.578;2023-02-15T06:28:40;101029.44;;;1.76;83.68
47883;BME280;37739;50.350;7.578;2023-02-15T06:31:06;101020.03;;;1.84;84.28
47883;BME280;37739;50.350;7.578;2023-02-15T06:33:32;101025.94;;;1.93;83.68
47883;BME280;37739;50.350;7.578;2023-02-15T06:36:00;101034.41;;;1.94;83.65
47883;BME280;37739;50.350;7.578;2023-02-15T06:38:26;101026.66;;;1.92;83.21
47883;BME280;37739;50.350;7.578;2023-02-15T06:40:54;101031.88;;;1.94;83.21
47883;BME280;37739;50.350;7.578;2023-02-15T06:43:22;101034.41;;;1.94;83.45
47883;BME280;37739;50.350;7.578;2023-02-15T06:45:50;101037.06;;;1.95;83.88
47883;BME280;37739;50.350;7.578;2023-02-15T06:48:17;101047.97;;;1.94;83.89
47883;BME280;37739;50.350;7.578;2023-02-15T06:50:43;101050.75;;;1.98;83.88
47883;BME280;37739;50.350;7.578;2023-02-15T06:53:08;101047.75;;;2.02;84.04
47883;BME280;37739;50.350;7.578;2023-02-15T06:55:33;101050.28;;;2.02;83.12
47883;BME280;37739;50.350;7.578;2023-02-15T06:58:01;101047.28;;;2.06;83.28
47883;BME280;37739;50.350;7.578;2023-02-15T07:00:29;101041.63;;;2.08;83.47
47883;BME280;37739;50.350;7.578;2023-02-15T07:02:57;101040.84;;;2.09;83.68
47883;BME280;37739;50.350;7.578;2023-02-15T07:05:26;101040.59;;;2.06;83.94
47883;BME280;37739;50.350;7.578;2023-02-15T07:07:56;101039.09;;;2.08;84.22
47883;BME280;37739;50.350;7.578;2023-02-15T07:10:24;101036.97;;;2.13;83.77
47883;BME280;37739;50.350;7.578;2023-02-15T07:12:50;101036.81;;;2.11;84.41
47883;BME280;37739;50.350;7.578;2023-02-15T07:15:18;101035.94;;;2.11;83.87
47883;BME280;37739;50.350;7.578;2023-02-15T07:17:46;101033.53;;;2.12;84.37
47883;BME280;37739;50.350;7.578;2023-02-15T07:20:18;101034.03;;;2.08;84.25
47883;BME280;37739;50.350;7.578;2023-02-15T07:22:48;101041.31;;;2.05;84.63
47883;BME280;37739;50.350;7.578;2023-02-15T07:25:16;101042.16;;;2.14;84.41
47883;BME280;37739;50.350;7.578;2023-02-15T07:27:42;101041.53;;;2.17;84.59
47883;BME280;37739;50.350;7.578;2023-02-15T07:30:10;101046.91;;;2.20;84.43
47883;BME280;37739;50.350;7.578;2023-02-15T07:32:35;101040.50;;;2.15;84.65
47883;BME280;37739;50.350;7.578;2023-02-15T07:35:03;101048.72;;;2.12;83.97
47883;BME280;37739;50.350;7.578;2023-02-15T07:37:29;101045.72;;;2.16;84.30
47883;BME280;37739;50.350;7.578;2023-02-15T07:39:58;101042.84;;;2.22;84.97
47883;BME280;37739;50.350;7.578;2023-02-15T07:42:26;101042.09;;;2.23;84.36
47883;BME280;37739;50.350;7.578;2023-02-15T07:44:51;101041.69;;;2.19;84.64
47883;BME280;37739;50.350;7.578;2023-02-15T07:47:17;101037.16;;;2.25;84.71
47883;BME280;37739;50.350;7.578;2023-02-15T07:49:45;101031.91;;;2.32;84.91
47883;BME280;37739;50.350;7.578;2023-02-15T07:52:10;101032.19;;;2.35;83.51
47883;BME280;37739;50.350;7.578;2023-02-15T07:54:36;101026.34;;;2.36;84.31
47883;BME280;37739;50.350;7.578;2023-02-15T07:57:04;101030.25;;;2.32;84.01
47883;BME280;37739;50.350;7.578;2023-02-15T07:59:31;101028.63;;;2.33;84.10
47883;BME280;37739;50.350;7.578;2023-02-15T08:01:57;101019.66;;;2.36;84.22
47883;BME280;37739;50.350;7.578;2023-02-15T08:04:27;101013.56;;;2.34;84.14
47883;BME280;37739;50.350;7.578;2023-02-15T08:06:53;101017.00;;;2.35;84.25
47883;BME280;37739;50.350;7.578;2023-02-15T08:09:22;101012.03;;;2.36;85.00
47883;BME280;37739;50.350;7.578;2023-02-15T08:11:49;101003.44;;;2.34;83.71
47883;BME280;37739;50.350;7.578;2023-02-15T08:14:17;101000.56;;;2.40;83.40
47883;BME280;37739;50.350;7.578;2023-02-15T08:16:50;100991.44;;;2.42;83.68
47883;BME280;37739;50.350;7.578;2023-02-15T08:19:18;100985.50;;;2.42;83.89
47883;BME280;37739;50.350;7.578;2023-02-15T08:21:46;100980.44;;;2.42;82.97
47883;BME280;37739;50.350;7.578;2023-02-15T08:24:16;100982.56;;;2.37;83.02
47883;BME280;37739;50.350;7.578;2023-02-15T08:26:42;100992.22;;;2.41;83.77
47883;BME280;37739;50.350;7.578;2023-02-15T08:29:10;100980.03;;;2.37;83.69
47883;BME280;37739;50.350;7.578;2023-02-15T08:31:36;100969.91;;;2.37;83.49
47883;BME280;37739;50.350;7.578;2023-02-15T08:34:03;100978.44;;;2.48;83.61
47883;BME280;37739;50.350;7.578;2023-02-15T08:36:31;100969.22;;;2.48;82.63
47883;BME280;37739;50.350;7.578;2023-02-15T08:39:05;100970.00;;;2.58;82.94
47883;BME280;37739;50.350;7.578;2023-02-15T08:41:35;100970.69;;;2.46;82.97
47883;BME280;37739;50.350;7.578;2023-02-15T08:44:05;100969.47;;;2.51;83.17
47883;BME280;37739;50.350;7.578;2023-02-15T08:46:37;100970.63;;;2.55;83.18
47883;BME280;37739;50.350;7.578;2023-02-15T08:49:03;100970.34;;;2.52;82.81
47883;BME280;37739;50.350;7.578;2023-02-15T08:51:34;100963.75;;;2.54;83.22
47883;BME280;37739;50.350;7.578;2023-02-15T08:54:06;100960.78;;;2.58;82.47
47883;BME280;37739;50.350;7.578;2023-02-15T08:56:34;100966.38;;;2.64;82.15
47883;BME280;37739;50.350;7.578;2023-02-15T08:59:00;100955.69;;;2.58;82.53
47883;BME280;37739;50.350;7.578;2023-02-15T09:01:28;100962.94;;;2.64;82.55
47883;BME280;37739;50.350;7.578;2023-02-15T09:03:57;100957.50;;;2.69;83.11
47883;BME280;37739;50.350;7.578;2023-02-15T09:06:23;100963.50;;;2.80;82.74
47883;BME280;37739;50.350;7.578;2023-02-15T09:08:49;100957.28;;;2.77;82.22
47883;BME280;37739;50.350;7.578;2023-02-15T09:11:20;100959.31;;;2.81;82.14
47883;BME280;37739;50.350;7.578;2023-02-15T09:13:57;100962.41;;;2.87;82.44
47883;BME280;37739;50.350;7.578;2023-02-15T09:16:29;100964.81;;;2.85;82.49
47883;BME280;37739;50.350;7.578;2023-02-15T09:18:56;100968.25;;;2.96;81.99
47883;BME280;37739;50.350;7.578;2023-02-15T09:21:29;100960.78;;;3.08;82.38
47883;BME280;37739;50.350;7.578;2023-02-15T09:24:00;100954.69;;;3.06;81.78
47883;BME280;37739;50.350;7.578;2023-02-15T09:26:29;100962.72;;;3.10;81.08
47883;BME280;37739;50.350;7.578;2023-02-15T09:28:58;100958.91;;;3.15;80.99
47883;BME280;37739;50.350;7.578;2023-02-15T09:31:31;100951.56;;;3.19;81.33
47883;BME280;37739;50.350;7.578;2023-02-15T09:33:58;100959.81;;;3.26;81.03
47883;BME280;37739;50.350;7.578;2023-02-15T09:36:35;100952.72;;;3.32;81.09
47883;BME280;37739;50.350;7.578;2023-02-15T09:39:06;100958.31;;;3.39;80.47
47883;BME280;37739;50.350;7.578;2023-02-15T09:41:54;100964.16;;;3.48;80.36
47883;BME280;37739;50.350;7.578;2023-02-15T09:47:20;100963.28;;;3.47;80.27
47883;BME280;37739;50.350;7.578;2023-02-15T09:58:54;100971.66;;;3.67;79.31
47883;BME280;37739;50.350;7.578;2023-02-15T10:01:56;100977.66;;;3.78;79.38
47883;BME280;37739;50.350;7.578;2023-02-15T10:28:06;100964.28;;;4.53;76.31
47883;BME280;37739;50.350;7.578;2023-02-15T10:30:46;100966.56;;;4.61;75.98
47883;BME280;37739;50.350;7.578;2023-02-15T10:33:38;100964.38;;;4.65;75.99
47883;BME280;37739;50.350;7.578;2023-02-15T10:39:17;100969.38;;;4.53;76.51
47883;BME280;37739;50.350;7.578;2023-02-15T10:42:03;100972.66;;;4.63;76.12
47883;BME280;37739;50.350;7.578;2023-02-15T10:56:20;100953.81;;;5.25;74.45
47883;BME280;37739;50.350;7.578;2023-02-15T10:58:51;100959.41;;;5.43;74.26
47883;BME280;37739;50.350;7.578;2023-02-15T11:06:37;100951.03;;;6.02;72.65
47883;BME280;37739;50.350;7.578;2023-02-15T11:09:12;100945.63;;;6.09;72.10
47883;BME280;37739;50.350;7.578;2023-02-15T11:11:45;100941.06;;;6.40;71.88
47883;BME280;37739;50.350;7.578;2023-02-15T11:17:09;100929.94;;;6.75;70.23
47883;BME280;37739;50.350;7.578;2023-02-15T11:19:38;100927.44;;;7.00;68.85
47883;BME280;37739;50.350;7.578;2023-02-15T11:22:09;100925.97;;;7.04;68.87
47883;BME280;37739;50.350;7.578;2023-02-15T11:24:45;100917.16;;;7.24;69.06
47883;BME280;37739;50.350;7.578;2023-02-15T11:27:19;100921.00;;;7.31;68.40
47883;BME280;37739;50.350;7.578;2023-02-15T11:30:04;100915.78;;;7.29;67.33
47883;BME280;37739;50.350;7.578;2023-02-15T11:32:39;100911.06;;;7.47;66.74
47883;BME280;37739;50.350;7.578;2023-02-15T11:37:43;100907.97;;;7.64;66.59
47883;BME280;37739;50.350;7.578;2023-02-15T11:40:47;100901.41;;;7.81;65.88
47883;BME280;37739;50.350;7.578;2023-02-15T11:43:27;100908.91;;;8.05;65.52
47883;BME280;37739;50.350;7.578;2023-02-15T11:45:54;100891.19;;;8.21;66.32
47883;BME280;37739;50.350;7.578;2023-02-15T11:48:19;100890.81;;;8.29;65.66
47883;BME280;37739;50.350;7.578;2023-02-15T11:50:45;100889.22;;;8.31;64.90
47883;BME280;37739;50.350;7.578;2023-02-15T11:53:14;100881.06;;;8.50;64.97
47883;BME280;37739;50.350;7.578;2023-02-15T11:55:45;100880.56;;;8.55;63.08
47883;BME280;37739;50.350;7.578;2023-02-15T12:00:52;100870.22;;;8.67;63.70
47883;BME280;37739;50.350;7.578;2023-02-15T12:03:26;100859.00;;;8.65;63.82
47883;BME280;37739;50.350;7.578;2023-02-15T12:06:01;100857.16;;;8.62;62.81
47883;BME280;37739;50.350;7.578;2023-02-15T12:08:40;100852.69;;;8.73;63.45
47883;BME280;37739;50.350;7.578;2023-02-15T12:11:19;100840.59;;;8.71;62.73
47883;BME280;37739;50.350;7.578;2023-02-15T12:13:56;100846.88;;;8.76;62.39
47883;BME280;37739;50.350;7.578;2023-02-15T12:16:25;100842.28;;;8.85;62.76
47883;BME280;37739;50.350;7.578;2023-02-15T12:18:55;100833.88;;;9.01;62.67
47883;BME280;37739;50.350;7.578;2023-02-15T12:21:39;100833.88;;;9.01;61.69
47883;BME280;37739;50.350;7.578;2023-02-15T12:24:18;100827.53;;;9.09;61.65
47883;BME280;37739;50.350;7.578;2023-02-15T12:26:56;100833.72;;;9.13;61.86
47883;BME280;37739;50.350;7.578;2023-02-15T12:29:26;100824.19;;;9.25;62.03
47883;BME280;37739;50.350;7.578;2023-02-15T12:31:52;100820.50;;;9.35;61.56
47883;BME280;37739;50.350;7.578;2023-02-15T12:34:25;100821.31;;;9.34;60.44
47883;BME280;37739;50.350;7.578;2023-02-15T12:36:53;100808.31;;;9.31;61.37
47883;BME280;37739;50.350;7.578;2023-02-15T12:39:30;100802.38;;;9.47;61.15
47883;BME280;37739;50.350;7.578;2023-02-15T12:42:14;100809.47;;;9.51;60.70
47883;BME280;37739;50.350;7.578;2023-02-15T12:45:00;100806.97;;;9.52;60.37
47883;BME280;37739;50.350;7.578;2023-02-15T12:47:29;100798.59;;;9.55;60.69
47883;BME280;37739;50.350;7.578;2023-02-15T12:50:21;100798.75;;;9.73;60.55
47883;BME280;37739;50.350;7.578;2023-02-15T12:52:49;100788.16;;;9.67;60.43
47883;BME280;37739;50.350;7.578;2023-02-15T12:55:27;100787.16;;;9.79;59.54
47883;BME280;37739;50.350;7.578;2023-02-15T12:58:26;100790.09;;;9.71;59.75
47883;BME280;37739;50.350;7.578;2023-02-15T13:03:50;100783.31;;;10.02;60.24
47883;BME280;37739;50.350;7.578;2023-02-15T13:06:18;100782.50;;;10.03;59.33
47883;BME280;37739;50.350;7.578;2023-02-15T13:09:20;100774.78;;;10.18;59.20
47883;BME280;37739;50.350;7.578;2023-02-15T13:11:46;100776.53;;;10.19;58.76
47883;BME280;37739;50.350;7.578;2023-02-15T13:14:19;100766.38;;;10.21;58.46
47883;BME280;37739;50.350;7.578;2023-02-15T13:16:48;100758.25;;;10.13;59.12
47883;BME280;37739;50.350;7.578;2023-02-15T13:19:23;100755.81;;;10.31;59.45
47883;BME280;37739;50.350;7.578;2023-02-15T13:21:54;100760.81;;;10.45;59.57
47883;BME280;37739;50.350;7.578;2023-02-15T13:24:39;100762.41;;;10.43;58.17
47883;BME280;37739;50.350;7.578;2023-02-15T13:27:14;100756.78;;;10.33;59.38
47883;BME280;37739;50.350;7.578;2023-02-15T13:29:44;100755.31;;;10.22;58.77
47883;BME280;37739;50.350;7.578;2023-02-15T13:32:25;100749.91;;;10.32;59.29
47883;BME280;37739;50.350;7.578;2023-02-15T13:34:57;100745.91;;;10.37;59.08
47883;BME280;37739;50.350;7.578;2023-02-15T13:40:24;100745.38;;;10.28;59.43
47883;BME280;37739;50.350;7.578;2023-02-15T13:48:19;100730.91;;;9.97;59.50
47883;BME280;37739;50.350;7.578;2023-02-15T13:56:44;100718.22;;;9.53;61.30
47883;BME280;37739;50.350;7.578;2023-02-15T14:07:47;100711.81;;;9.15;61.86
47883;BME280;37739;50.350;7.578;2023-02-15T14:15:48;100704.03;;;8.98;62.58
47883;BME280;37739;50.350;7.578;2023-02-15T14:26:40;100704.31;;;8.88;62.64
47883;BME280;37739;50.350;7.578;2023-02-15T14:31:55;100703.16;;;8.83;63.32
47883;BME280;37739;50.350;7.578;2023-02-15T14:34:34;100702.19;;;8.81;63.23
47883;BME280;37739;50.350;7.578;2023-02-15T14:37:13;100698.41;;;8.74;63.15
47883;BME280;37739;50.350;7.578;2023-02-15T14:40:05;100688.41;;;8.79;63.09
47883;BME280;37739;50.350;7.578;2023-02-15T14:43:51;100692.56;;;8.77;63.39
47883;BME280;37739;50.350;7.578;2023-02-15T14:48:43;100697.59;;;8.75;63.59
47883;BME280;37739;50.350;7.578;2023-02-15T14:59:35;100695.75;;;8.73;63.39
47883;BME280;37739;50.350;7.578;2023-02-15T15:04:40;100693.50;;;8.64;63.70
47883;BME280;37739;50.350;7.578;2023-02-15T15:09:46;100688.41;;;8.64;63.58
47883;BME280;37739;50.350;7.578;2023-02-15T15:14:47;100692.09;;;8.54;64.17
47883;BME280;37739;50.350;7.578;2023-02-15T15:20:11;100698.72;;;8.51;63.95
47883;BME280;37739;50.350;7.578;2023-02-15T15:22:39;100696.69;;;8.45;64.03
47883;BME280;37739;50.350;7.578;2023-02-15T15:25:23;100685.47;;;8.43;64.30
47883;BME280;37739;50.350;7.578;2023-02-15T15:28:01;100690.25;;;8.38;64.05
47883;BME280;37739;50.350;7.578;2023-02-15T15:36:12;100685.31;;;8.26;64.44
47883;BME280;37739;50.350;7.578;2023-02-15T15:49:26;100683.53;;;7.97;65.39
47883;BME280;37739;50.350;7.578;2023-02-15T15:51:56;100685.00;;;7.94;65.12
47883;BME280;37739;50.350;7.578;2023-02-15T15:54:27;100677.59;;;7.83;65.47
47883;BME280;37739;50.350;7.578;2023-02-15T15:56:55;100679.94;;;7.80;65.58
47883;BME280;37739;50.350;7.578;2023-02-15T15:59:30;100673.00;;;7.64;65.54
47883;BME280;37739;50.350;7.578;2023-02-15T16:01:56;100669.38;;;7.61;66.08
47883;BME280;37739;50.350;7.578;2023-02-15T16:04:32;100667.19;;;7.54;66.05
47883;BME280;37739;50.350;7.578;2023-02-15T16:10:38;100668.78;;;7.38;66.50
47883;BME280;37739;50.350;7.578;2023-02-15T16:12:39;100669.88;;;7.28;66.76
47883;BME280;37739;50.350;7.578;2023-02-15T16:17:42;100674.69;;;7.11;67.65
47883;BME280;37739;50.350;7.578;2023-02-15T16:20:27;100677.91;;;7.08;67.72
47883;BME280;37739;50.350;7.578;2023-02-15T16:26:56;100692.63;;;6.99;68.26
47883;BME280;37739;50.350;7.578;2023-02-15T16:28:58;100702.22;;;6.90;68.36
47883;BME280;37739;50.350;7.578;2023-02-15T16:31:26;100702.59;;;6.82;68.30
47883;BME280;37739;50.350;7.578;2023-02-15T16:33:59;100706.72;;;6.80;68.72